sensor_id;sensor_type;location;lat;lon;timestamp;pressure;altitude;pressure_sealevel;temperature;humidity
54389;BME280;40975;50.390;8.640;2023-03-20T00:01:27;99235.16;;;8.23;100.00
54389;BME280;40975;50.390;8.640;2023-03-20T00:03:54;99243.47;;;8.18;100.00
54389;BME280;40975;50.390;8.640;2023-03-20T00:06:22;99237.91;;;8.21;100.00
54389;BME280;40975;50.390;8.640;2023-03-20T00:08:51;99243.47;;;8.18;100.00
54389;BME280;40975;50.390;8.640;2023-03-20T00:13:56;99241.16;;;8.14;100.00
54389;BME280;40975;50.390;8.640;2023-03-20T00:16:23;99240.47;;;8.12;100.00
54389;BME280;40975;50.390;8.640;2023-03-20T00:18:49;99238.91;;;8.09;100.00
54389;BME280;40975;50.390;8.640;2023-03-20T00:21:18;99246.47;;;8.14;100.00
54389;BME280;40975;50.390;8.640;2023-03-20T00:23:43;99250.78;;;8.15;100.00
54389;BME280;40975;50.390;8.640;2023-03-20T00:26:14;99251.63;;;8.15;100.00
54389;BME280;40975;50.390;8.640;2023-03-20T00:28:46;99243.13;;;8.12;100.00
54389;BME280;40975;50.390;8.640;2023-03-20T00:31:29;99254.53;;;8.12;100.00
54389;BME280;40975;50.390;8.640;2023-03-20T00:33:58;99257.16;;;8.12;100.00
54389;BME280;40975;50.390;8.640;2023-03-20T00:36:25;99259.56;;;8.15;100.00
54389;BME280;40975;50.390;8.640;2023-03-20T00:38:50;99253.56;;;8.13;100.00
54389;BME280;40975;50.390;8.640;2023-03-20T00:41:42;99258.94;;;8.23;100.00
54389;BME280;40975;50.390;8.640;2023-03-20T00:44:19;99268.41;;;8.25;100.00
54389;BME280;40975;50.390;8.640;2023-03-20T00:46:48;99266.09;;;8.32;100.00
54389;BME280;40975;50.390;8.640;2023-03-20T00:49:15;99258.41;;;8.29;100.00
54389;BME280;40975;50.390;8.640;2023-03-20T00:51:40;99264.84;;;8.36;100.00
54389;BME280;40975;50.390;8.640;2023-03-20T00:54:15;99265.97;;;8.34;100.00
54389;BME280;40975;50.390;8.640;2023-03-20T00:56:43;99263.75;;;8.39;100.00
54389;BME280;40975;50.390;8.640;2023-03-20T00:59:16;99268.34;;;8.37;100.00
54389;BME280;40975;50.390;8.640;2023-03-20T01:01:42;99271.13;;;8.35;100.00
54389;BME280;40975;50.390;8.640;2023-03-20T01:04:13;99270.63;;;8.42;100.00
54389;BME280;40975;50.390;8.640;2023-03-20T01:06:39;99272.28;;;8.43;100.00
54389;BME280;40975;50.390;8.640;2023-03-20T01:09:05;99268.78;;;8.42;100.00
54389;BME280;40975;50.390;8.640;2023-03-20T01:11:30;99273.13;;;8.43;100.00
54389;BME280;40975;50.390;8.640;2023-03-20T01:13:56;99272.69;;;8.38;100.00
54389;BME280;40975;50.390;8.640;2023-03-20T01:16:24;99271.44;;;8.42;100.00
54389;BME280;40975;50.390;8.640;2023-03-20T01:18:50;99272.41;;;8.41;100.00
54389;BME280;40975;50.390;8.640;2023-03-20T01:21:17;99258.47;;;8.39;100.00
54389;BME280;40975;50.390;8.640;2023-03-20T01:23:42;99269.91;;;8.39;100.00
54389;BME280;40975;50.390;8.640;2023-03-20T01:26:21;99266.69;;;8.36;100.00
54389;BME280;40975;50.390;8.640;2023-03-20T01:28:49;99275.81;;;8.32;100.00
54389;BME280;40975;50.390;8.640;2023-03-20T01:31:16;99268.13;;;8.29;100.00
54389;BME280;40975;50.390;8.640;2023-03-20T01:33:42;99285.81;;;8.28;100.00
54389;BME280;40975;50.390;8.640;2023-03-20T01:36:12;99275.38;;;8.27;100.00
54389;BME280;40975;50.390;8.640;2023-03-20T01:38:39;99260.41;;;8.16;100.00
54389;BME280;40975;50.390;8.640;2023-03-20T01:41:16;99280.09;;;8.23;100.00
54389;BME280;40975;50.390;8.640;2023-03-20T01:43:43;99282.72;;;8.23;100.00
54389;BME280;40975;50.390;8.640;2023-03-20T01:51:13;99287.31;;;8.21;100.00
54389;BME280;40975;50.390;8.640;2023-03-20T01:53:39;99277.94;;;8.17;100.00
54389;BME280;40975;50.390;8.640;2023-03-20T01:56:04;99280.59;;;8.17;100.00
54389;BME280;40975;50.390;8.640;2023-03-20T01:58:42;99269.28;;;8.15;100.00
54389;BME280;40975;50.390;8.640;2023-03-20T02:01:10;99280.97;;;8.12;100.00
54389;BME280;40975;50.390;8.640;2023-03-20T02:03:39;99283.22;;;8.17;100.00
54389;BME280;40975;50.390;8.640;2023-03-20T02:06:19;99282.50;;;8.15;100.00
54389;BME280;40975;50.390;8.640;2023-03-20T02:09:10;99279.88;;;8.15;100.00
54389;BME280;40975;50.390;8.640;2023-03-20T02:11:40;99277.22;;;8.15;100.00
54389;BME280;40975;50.390;8.640;2023-03-20T02:14:08;99280.59;;;8.17;100.00
54389;BME280;40975;50.390;8.640;2023-03-20T02:16:52;99280.34;;;8.20;100.00
54389;BME280;40975;50.390;8.640;2023-03-20T02:24:57;99272.25;;;8.21;100.00
54389;BME280;40975;50.390;8.640;2023-03-20T02:27:41;99281.63;;;8.25;100.00
54389;BME280;40975;50.390;8.640;2023-03-20T02:38:15;99275.63;;;8.23;100.00
54389;BME280;40975;50.390;8.640;2023-03-20T02:41:04;99281.63;;;8.25;100.00
54389;BME280;40975;50.390;8.640;2023-03-20T02:46:31;99272.34;;;8.31;100.00
54389;BME280;40975;50.390;8.640;2023-03-20T02:49:12;99274.72;;;8.34;100.00
54389;BME280;40975;50.390;8.640;2023-03-20T02:51:53;99284.47;;;8.34;100.00
54389;BME280;40975;50.390;8.640;2023-03-20T02:54:33;99282.78;;;8.33;100.00
54389;BME280;40975;50.390;8.640;2023-03-20T02:57:11;99282.78;;;8.33;100.00
54389;BME280;40975;50.390;8.640;2023-03-20T02:59:51;99284.09;;;8.38;100.00
54389;BME280;40975;50.390;8.640;2023-03-20T03:02:24;99287.88;;;8.46;100.00
54389;BME280;40975;50.390;8.640;2023-03-20T03:04:54;99283.94;;;8.40;100.00
54389;BME280;40975;50.390;8.640;2023-03-20T03:07:24;99282.03;;;8.42;100.00
54389;BME280;40975;50.390;8.640;2023-03-20T03:09:53;99292.34;;;8.45;100.00
54389;BME280;40975;50.390;8.640;2023-03-20T03:12:27;99289.78;;;8.55;100.00
54389;BME280;40975;50.390;8.640;2023-03-20T03:15:00;99289.78;;;8.55;100.00
54389;BME280;40975;50.390;8.640;2023-03-20T03:17:29;99286.88;;;8.58;100.00
54389;BME280;40975;50.390;8.640;2023-03-20T03:19:59;99288.81;;;8.56;100.00
54389;BME280;40975;50.390;8.640;2023-03-20T03:22:30;99286.88;;;8.58;100.00
54389;BME280;40975;50.390;8.640;2023-03-20T03:24:58;99291.22;;;8.59;100.00
54389;BME280;40975;50.390;8.640;2023-03-20T03:27:27;99294.91;;;8.68;100.00
54389;BME280;40975;50.390;8.640;2023-03-20T03:30:11;99287.78;;;8.68;100.00
54389;BME280;40975;50.390;8.640;2023-03-20T03:32:46;99290.56;;;8.67;100.00
54389;BME280;40975;50.390;8.640;2023-03-20T03:35:20;99296.44;;;8.70;100.00
54389;BME280;40975;50.390;8.640;2023-03-20T03:37:55;99302.69;;;8.69;100.00
54389;BME280;40975;50.390;8.640;2023-03-20T03:43:18;99303.09;;;8.65;100.00
54389;BME280;40975;50.390;8.640;2023-03-20T03:45:52;99308.53;;;8.63;100.00
54389;BME280;40975;50.390;8.640;2023-03-20T03:48:20;99314.50;;;8.65;100.00
54389;BME280;40975;50.390;8.640;2023-03-20T03:50:51;99316.47;;;8.63;100.00
54389;BME280;40975;50.390;8.640;2023-03-20T03:53:42;99320.75;;;8.64;100.00
54389;BME280;40975;50.390;8.640;2023-03-20T03:56:13;99323.41;;;8.64;100.00
54389;BME280;40975;50.390;8.640;2023-03-20T03:58:42;99327.63;;;8.67;100.00
54389;BME280;40975;50.390;8.640;2023-03-20T04:01:11;99326.75;;;8.66;100.00
54389;BME280;40975;50.390;8.640;2023-03-20T04:03:42;99329.41;;;8.66;100.00
54389;BME280;40975;50.390;8.640;2023-03-20T04:06:10;99331.09;;;8.67;100.00
54389;BME280;40975;50.390;8.640;2023-03-20T04:08:39;99325.78;;;8.67;100.00
54389;BME280;40975;50.390;8.640;2023-03-20T04:11:04;99328.44;;;8.67;100.00
54389;BME280;40975;50.390;8.640;2023-03-20T04:13:30;99322.00;;;8.60;100.00
54389;BME280;40975;50.390;8.640;2023-03-20T04:15:56;99325.09;;;8.65;100.00
54389;BME280;40975;50.390;8.640;2023-03-20T04:18:23;99339.03;;;8.67;100.00
54389;BME280;40975;50.390;8.640;2023-03-20T04:20:49;99352.50;;;8.64;100.00
54389;BME280;40975;50.390;8.640;2023-03-20T04:23:16;99345.75;;;8.71;100.00
54389;BME280;40975;50.390;8.640;2023-03-20T04:25:41;99347.69;;;8.69;100.00
54389;BME280;40975;50.390;8.640;2023-03-20T04:28:06;99344.06;;;8.70;100.00
54389;BME280;40975;50.390;8.640;2023-03-20T04:30:51;99340.13;;;8.65;100.00
54389;BME280;40975;50.390;8.640;2023-03-20T04:33:32;99350.56;;;8.66;100.00
54389;BME280;40975;50.390;8.640;2023-03-20T04:36:05;99359.81;;;8.72;100.00
54389;BME280;40975;50.390;8.640;2023-03-20T04:38:31;99365.72;;;8.64;100.00
54389;BME280;40975;50.390;8.640;2023-03-20T04:40:56;99350.91;;;8.52;100.00
54389;BME280;40975;50.390;8.640;2023-03-20T04:43:22;99372.38;;;8.59;100.00
54389;BME280;40975;50.390;8.640;2023-03-20T04:45:47;99374.56;;;8.53;100.00
54389;BME280;40975;50.390;8.640;2023-03-20T04:48:13;99377.09;;;8.55;100.00
54389;BME280;40975;50.390;8.640;2023-03-20T04:50:39;99376.41;;;8.53;100.00
54389;BME280;40975;50.390;8.640;2023-03-20T04:53:04;99379.44;;;8.48;100.00
54389;BME280;40975;50.390;8.640;2023-03-20T04:55:30;99375.09;;;8.47;100.00
54389;BME280;40975;50.390;8.640;2023-03-20T04:57:55;99375.91;;;8.48;100.00
54389;BME280;40975;50.390;8.640;2023-03-20T05:00:22;99379.06;;;8.42;100.00
54389;BME280;40975;50.390;8.640;2023-03-20T05:02:48;99371.69;;;8.45;100.00
54389;BME280;40975;50.390;8.640;2023-03-20T05:05:15;99366.06;;;8.38;100.00
54389;BME280;40975;50.390;8.640;2023-03-20T05:07:41;99357.63;;;8.45;100.00
54389;BME280;40975;50.390;8.640;2023-03-20T05:10:09;99358.31;;;8.25;100.00
54389;BME280;40975;50.390;8.640;2023-03-20T05:12:44;99348.22;;;8.19;100.00
54389;BME280;40975;50.390;8.640;2023-03-20T05:15:34;99356.66;;;8.13;100.00
54389;BME280;40975;50.390;8.640;2023-03-20T05:18:18;99357.38;;;8.15;100.00
54389;BME280;40975;50.390;8.640;2023-03-20T05:21:02;99364.22;;;8.18;100.00
54389;BME280;40975;50.390;8.640;2023-03-20T05:23:46;99354.03;;;8.13;100.00
54389;BME280;40975;50.390;8.640;2023-03-20T05:26:22;99357.03;;;8.08;100.00
54389;BME280;40975;50.390;8.640;2023-03-20T05:29:06;99359.34;;;8.02;100.00
54389;BME280;40975;50.390;8.640;2023-03-20T05:31:42;99362.34;;;8.08;100.00
54389;BME280;40975;50.390;8.640;2023-03-20T05:34:16;99358.84;;;8.08;100.00
54389;BME280;40975;50.390;8.640;2023-03-20T05:36:41;99364.25;;;8.06;100.00
54389;BME280;40975;50.390;8.640;2023-03-20T05:39:27;99353.81;;;8.05;100.00
54389;BME280;40975;50.390;8.640;2023-03-20T05:42:15;99360.19;;;8.02;100.00
54389;BME280;40975;50.390;8.640;2023-03-20T05:44:50;99360.88;;;8.04;100.00
54389;BME280;40975;50.390;8.640;2023-03-20T05:47:16;99345.16;;;8.03;100.00
54389;BME280;40975;50.390;8.640;2023-03-20T05:49:56;99346.72;;;8.05;100.00
54389;BME280;40975;50.390;8.640;2023-03-20T05:52:30;99345.75;;;8.06;100.00
54389;BME280;40975;50.390;8.640;2023-03-20T05:55:25;99357.19;;;8.07;100.00
54389;BME280;40975;50.390;8.640;2023-03-20T05:58:01;99351.88;;;8.07;100.00
54389;BME280;40975;50.390;8.640;2023-03-20T06:00:42;99354.78;;;8.04;100.00
54389;BME280;40975;50.390;8.640;2023-03-20T06:03:26;99357.19;;;8.07;100.00
54389;BME280;40975;50.390;8.640;2023-03-20T06:06:03;99365.94;;;8.07;100.00
54389;BME280;40975;50.390;8.640;2023-03-20T06:08:28;99370.63;;;8.04;100.00
54389;BME280;40975;50.390;8.640;2023-03-20T06:10:56;99376.28;;;7.99;100.00
54389;BME280;40975;50.390;8.640;2023-03-20T06:13:22;99368.97;;;7.91;100.00
54389;BME280;40975;50.390;8.640;2023-03-20T06:15:48;99374.97;;;7.93;100.00
54389;BME280;40975;50.390;8.640;2023-03-20T06:18:16;99376.81;;;7.93;100.00
54389;BME280;40975;50.390;8.640;2023-03-20T06:20:41;99375.13;;;7.92;100.00
54389;BME280;40975;50.390;8.640;2023-03-20T06:23:07;99383.72;;;7.94;100.00
54389;BME280;40975;50.390;8.640;2023-03-20T06:25:33;99386.13;;;7.97;100.00
54389;BME280;40975;50.390;8.640;2023-03-20T06:27:59;99394.06;;;7.97;100.00
54389;BME280;40975;50.390;8.640;2023-03-20T06:30:24;99387.81;;;7.98;100.00
54389;BME280;40975;50.390;8.640;2023-03-20T06:32:50;99390.09;;;8.03;100.00
54389;BME280;40975;50.390;8.640;2023-03-20T06:35:16;99386.13;;;7.97;100.00
54389;BME280;40975;50.390;8.640;2023-03-20T06:37:45;99371.00;;;7.99;100.00
54389;BME280;40975;50.390;8.640;2023-03-20T06:40:15;99372.19;;;8.06;100.00
54389;BME280;40975;50.390;8.640;2023-03-20T06:42:41;99366.53;;;8.11;100.00
54389;BME280;40975;50.390;8.640;2023-03-20T06:45:07;99364.72;;;8.12;100.00
54389;BME280;40975;50.390;8.640;2023-03-20T06:47:43;99365.31;;;8.15;100.00
54389;BME280;40975;50.390;8.640;2023-03-20T06:50:09;99371.44;;;8.16;100.00
54389;BME280;40975;50.390;8.640;2023-03-20T06:52:34;99370.94;;;8.22;100.00
54389;BME280;40975;50.390;8.640;2023-03-20T06:55:24;99381.72;;;8.30;100.00
54389;BME280;40975;50.390;8.640;2023-03-20T06:57:49;99376.06;;;8.35;100.00
54389;BME280;40975;50.390;8.640;2023-03-20T07:00:16;99380.41;;;8.36;100.00
54389;BME280;40975;50.390;8.640;2023-03-20T07:02:42;99387.84;;;8.31;100.00
54389;BME280;40975;50.390;8.640;2023-03-20T07:05:11;99388.66;;;8.43;100.00
54389;BME280;40975;50.390;8.640;2023-03-20T07:07:37;99387.69;;;8.44;100.00
54389;BME280;40975;50.390;8.640;2023-03-20T07:10:02;99393.63;;;8.36;100.00
54389;BME280;40975;50.390;8.640;2023-03-20T07:12:28;99381.69;;;8.42;100.00
54389;BME280;40975;50.390;8.640;2023-03-20T07:14:57;99402.47;;;8.46;100.00
54389;BME280;40975;50.390;8.640;2023-03-20T07:17:22;99399.94;;;8.56;100.00
54389;BME280;40975;50.390;8.640;2023-03-20T07:19:48;99401.81;;;8.65;100.00
54389;BME280;40975;50.390;8.640;2023-03-20T07:22:20;99403.28;;;8.58;100.00
54389;BME280;40975;50.390;8.640;2023-03-20T07:24:47;99404.84;;;8.61;100.00
54389;BME280;40975;50.390;8.640;2023-03-20T07:27:12;99398.72;;;8.60;100.00
54389;BME280;40975;50.390;8.640;2023-03-20T07:29:37;99404.50;;;8.54;100.00
54389;BME280;40975;50.390;8.640;2023-03-20T07:32:09;99398.59;;;8.62;100.00
54389;BME280;40975;50.390;8.640;2023-03-20T07:34:38;99408.00;;;8.54;100.00
54389;BME280;40975;50.390;8.640;2023-03-20T07:37:03;99422.06;;;8.55;100.00
54389;BME280;40975;50.390;8.640;2023-03-20T07:39:31;99416.19;;;8.51;100.00
54389;BME280;40975;50.390;8.640;2023-03-20T07:42:15;99419.69;;;8.52;100.00
54389;BME280;40975;50.390;8.640;2023-03-20T07:44:49;99413.75;;;8.60;100.00
54389;BME280;40975;50.390;8.640;2023-03-20T07:47:14;99416.00;;;8.64;100.00
54389;BME280;40975;50.390;8.640;2023-03-20T07:49:39;99409.63;;;8.67;100.00
54389;BME280;40975;50.390;8.640;2023-03-20T07:52:07;99415.38;;;8.72;100.00
54389;BME280;40975;50.390;8.640;2023-03-20T07:54:32;99411.47;;;8.88;100.00
54389;BME280;40975;50.390;8.640;2023-03-20T07:56:58;99421.47;;;9.05;100.00
54389;BME280;40975;50.390;8.640;2023-03-20T07:59:23;99411.88;;;9.14;100.00
54389;BME280;40975;50.390;8.640;2023-03-20T08:01:48;99422.69;;;9.22;100.00
54389;BME280;40975;50.390;8.640;2023-03-20T08:04:14;99410.91;;;9.36;100.00
54389;BME280;40975;50.390;8.640;2023-03-20T08:06:43;99429.50;;;9.77;100.00
54389;BME280;40975;50.390;8.640;2023-03-20T08:09:08;99430.41;;;9.97;100.00
54389;BME280;40975;50.390;8.640;2023-03-20T08:11:34;99430.28;;;10.08;100.00
54389;BME280;40975;50.390;8.640;2023-03-20T08:13:59;99419.56;;;10.10;100.00
54389;BME280;40975;50.390;8.640;2023-03-20T08:16:24;99429.03;;;10.03;100.00
54389;BME280;40975;50.390;8.640;2023-03-20T08:18:50;99437.09;;;10.01;100.00
54389;BME280;40975;50.390;8.640;2023-03-20T08:21:17;99436.94;;;9.83;100.00
54389;BME280;40975;50.390;8.640;2023-03-20T08:23:43;99411.72;;;9.58;100.00
54389;BME280;40975;50.390;8.640;2023-03-20T08:26:08;99422.19;;;9.59;100.00
54389;BME280;40975;50.390;8.640;2023-03-20T08:28:33;99423.47;;;9.65;100.00
54389;BME280;40975;50.390;8.640;2023-03-20T08:30:59;99422.97;;;9.91;100.00
54389;BME280;40975;50.390;8.640;2023-03-20T08:33:24;99432.91;;;9.99;100.00
54389;BME280;40975;50.390;8.640;2023-03-20T08:35:57;99432.97;;;10.18;100.00
54389;BME280;40975;50.390;8.640;2023-03-20T08:38:23;99431.00;;;10.10;100.00
54389;BME280;40975;50.390;8.640;2023-03-20T08:40:48;99431.31;;;10.27;100.00
54389;BME280;40975;50.390;8.640;2023-03-20T08:43:14;99432.28;;;10.36;100.00
54389;BME280;40975;50.390;8.640;2023-03-20T08:45:39;99437.59;;;10.36;100.00
54389;BME280;40975;50.390;8.640;2023-03-20T08:48:04;99449.19;;;10.25;100.00
54389;BME280;40975;50.390;8.640;2023-03-20T08:50:30;99445.41;;;10.27;100.00
54389;BME280;40975;50.390;8.640;2023-03-20T08:52:56;99452.25;;;10.20;100.00
54389;BME280;40975;50.390;8.640;2023-03-20T08:55:21;99444.38;;;10.60;100.00
54389;BME280;40975;50.390;8.640;2023-03-20T08:57:46;99448.56;;;11.59;100.00
54389;BME280;40975;50.390;8.640;2023-03-20T09:00:13;99454.84;;;11.68;100.00
54389;BME280;40975;50.390;8.640;2023-03-20T09:02:40;99438.56;;;11.80;100.00
54389;BME280;40975;50.390;8.640;2023-03-20T09:05:06;99437.81;;;13.25;97.86
54389;BME280;40975;50.390;8.640;2023-03-20T09:07:31;99437.03;;;16.08;83.75
54389;BME280;40975;50.390;8.640;2023-03-20T09:09:57;99433.44;;;18.37;69.91
54389;BME280;40975;50.390;8.640;2023-03-20T09:12:22;99432.41;;;17.27;68.91
54389;BME280;40975;50.390;8.640;2023-03-20T09:14:48;99447.31;;;16.28;74.21
54389;BME280;40975;50.390;8.640;2023-03-20T09:17:13;99440.06;;;15.41;78.67
54389;BME280;40975;50.390;8.640;2023-03-20T09:19:38;99432.72;;;14.60;82.34
54389;BME280;40975;50.390;8.640;2023-03-20T09:22:07;99435.28;;;14.19;83.28
54389;BME280;40975;50.390;8.640;2023-03-20T09:24:32;99441.56;;;13.58;87.20
54389;BME280;40975;50.390;8.640;2023-03-20T09:26:58;99443.69;;;13.10;90.31
54389;BME280;40975;50.390;8.640;2023-03-20T09:29:25;99448.19;;;13.54;90.26
54389;BME280;40975;50.390;8.640;2023-03-20T09:31:52;99443.03;;;13.52;90.28
54389;BME280;40975;50.390;8.640;2023-03-20T09:34:17;99447.31;;;13.72;87.81
54389;BME280;40975;50.390;8.640;2023-03-20T09:36:42;99451.09;;;14.63;83.43
54389;BME280;40975;50.390;8.640;2023-03-20T09:39:08;99439.69;;;15.60;78.64
54389;BME280;40975;50.390;8.640;2023-03-20T09:41:33;99444.50;;;15.73;77.70
54389;BME280;40975;50.390;8.640;2023-03-20T09:46:59;99446.53;;;17.35;70.09
54389;BME280;40975;50.390;8.640;2023-03-20T09:49:38;99433.78;;;17.37;64.20
54389;BME280;40975;50.390;8.640;2023-03-20T09:52:27;99447.56;;;17.64;64.09
54389;BME280;40975;50.390;8.640;2023-03-20T09:55:00;99445.78;;;19.11;61.49
54389;BME280;40975;50.390;8.640;2023-03-20T09:57:31;99460.16;;;16.96;68.00
54389;BME280;40975;50.390;8.640;2023-03-20T10:00:03;99463.53;;;15.95;70.95
54389;BME280;40975;50.390;8.640;2023-03-20T10:03:03;99456.66;;;15.19;73.53
54389;BME280;40975;50.390;8.640;2023-03-20T10:05:34;99461.81;;;14.88;76.27
54389;BME280;40975;50.390;8.640;2023-03-20T10:08:04;99458.59;;;14.59;76.72
54389;BME280;40975;50.390;8.640;2023-03-20T10:10:45;99461.75;;;14.04;79.27
54389;BME280;40975;50.390;8.640;2023-03-20T10:18:34;99453.94;;;13.67;82.62
54389;BME280;40975;50.390;8.640;2023-03-20T10:21:16;99453.47;;;13.28;83.91
54389;BME280;40975;50.390;8.640;2023-03-20T10:24:05;99453.94;;;12.79;85.67
54389;BME280;40975;50.390;8.640;2023-03-20T10:26:33;99462.06;;;12.95;87.49
54389;BME280;40975;50.390;8.640;2023-03-20T10:29:01;99454.59;;;13.17;85.80
54389;BME280;40975;50.390;8.640;2023-03-20T10:31:35;99452.72;;;13.88;83.82
54389;BME280;40975;50.390;8.640;2023-03-20T10:34:21;99455.75;;;14.61;82.70
54389;BME280;40975;50.390;8.640;2023-03-20T10:40:23;99452.91;;;15.62;76.12
54389;BME280;40975;50.390;8.640;2023-03-20T10:42:20;99454.78;;;15.28;76.81
54389;BME280;40975;50.390;8.640;2023-03-20T10:45:05;99459.91;;;14.55;77.45
54389;BME280;40975;50.390;8.640;2023-03-20T10:47:35;99458.31;;;14.20;77.59
54389;BME280;40975;50.390;8.640;2023-03-20T10:50:17;99448.09;;;13.98;78.70
54389;BME280;40975;50.390;8.640;2023-03-20T10:52:45;99448.06;;;13.90;78.23
54389;BME280;40975;50.390;8.640;2023-03-20T10:55:19;99449.56;;;13.58;82.97
54389;BME280;40975;50.390;8.640;2023-03-20T10:57:50;99455.91;;;12.95;84.42
54389;BME280;40975;50.390;8.640;2023-03-20T11:00:19;99440.84;;;12.85;86.96
54389;BME280;40975;50.390;8.640;2023-03-20T11:02:45;99446.47;;;13.00;87.19
54389;BME280;40975;50.390;8.640;2023-03-20T11:05:31;99446.25;;;12.94;88.24
54389;BME280;40975;50.390;8.640;2023-03-20T11:08:21;99443.00;;;12.82;89.15
54389;BME280;40975;50.390;8.640;2023-03-20T11:10:57;99440.53;;;12.88;87.08
54389;BME280;40975;50.390;8.640;2023-03-20T11:15:54;99433.56;;;12.69;86.11
54389;BME280;40975;50.390;8.640;2023-03-20T11:18:23;99431.56;;;12.89;84.29
54389;BME280;40975;50.390;8.640;2023-03-20T11:20:56;99423.38;;;13.09;84.66
54389;BME280;40975;50.390;8.640;2023-03-20T11:23:27;99437.50;;;13.28;81.45
54389;BME280;40975;50.390;8.640;2023-03-20T11:26:05;99420.66;;;13.80;78.25
54389;BME280;40975;50.390;8.640;2023-03-20T11:28:34;99422.69;;;14.37;79.72
54389;BME280;40975;50.390;8.640;2023-03-20T11:31:04;99428.94;;;14.71;75.05
54389;BME280;40975;50.390;8.640;2023-03-20T11:33:37;99418.69;;;14.50;77.47
54389;BME280;40975;50.390;8.640;2023-03-20T11:36:11;99419.13;;;14.20;75.82
54389;BME280;40975;50.390;8.640;2023-03-20T11:38:43;99418.66;;;14.33;77.23
54389;BME280;40975;50.390;8.640;2023-03-20T11:41:26;99412.56;;;14.74;73.62
54389;BME280;40975;50.390;8.640;2023-03-20T11:43:52;99412.72;;;14.89;73.50
54389;BME280;40975;50.390;8.640;2023-03-20T11:46:19;99404.66;;;15.30;73.96
54389;BME280;40975;50.390;8.640;2023-03-20T11:48:46;99402.31;;;15.35;72.41
54389;BME280;40975;50.390;8.640;2023-03-20T11:51:15;99402.09;;;16.01;72.23
54389;BME280;40975;50.390;8.640;2023-03-20T11:56:22;99401.19;;;15.86;72.51
54389;BME280;40975;50.390;8.640;2023-03-20T11:59:13;99397.84;;;16.15;69.61
54389;BME280;40975;50.390;8.640;2023-03-20T12:01:41;99391.63;;;15.92;65.21
54389;BME280;40975;50.390;8.640;2023-03-20T12:04:14;99391.63;;;15.83;66.48
54389;BME280;40975;50.390;8.640;2023-03-20T12:06:44;99391.28;;;16.26;71.22
54389;BME280;40975;50.390;8.640;2023-03-20T12:09:23;99381.56;;;16.25;66.90
54389;BME280;40975;50.390;8.640;2023-03-20T12:12:14;99379.66;;;15.63;65.92
54389;BME280;40975;50.390;8.640;2023-03-20T12:14:52;99385.72;;;15.57;68.26
54389;BME280;40975;50.390;8.640;2023-03-20T12:23:14;99360.78;;;14.58;65.48
54389;BME280;40975;50.390;8.640;2023-03-20T12:25:56;99364.44;;;14.49;66.49
54389;BME280;40975;50.390;8.640;2023-03-20T12:28:25;99360.44;;;14.45;65.40
54389;BME280;40975;50.390;8.640;2023-03-20T12:31:23;99351.28;;;14.72;67.45
54389;BME280;40975;50.390;8.640;2023-03-20T12:33:57;99350.09;;;15.00;66.24
54389;BME280;40975;50.390;8.640;2023-03-20T12:36:33;99351.09;;;14.99;63.55
54389;BME280;40975;50.390;8.640;2023-03-20T12:39:02;99342.72;;;15.10;64.62
54389;BME280;40975;50.390;8.640;2023-03-20T12:41:32;99343.00;;;15.23;67.54
54389;BME280;40975;50.390;8.640;2023-03-20T12:47:15;99333.00;;;15.17;62.64
54389;BME280;40975;50.390;8.640;2023-03-20T12:49:56;99323.97;;;15.27;63.27
54389;BME280;40975;50.390;8.640;2023-03-20T12:53:06;99318.34;;;15.05;62.23
54389;BME280;40975;50.390;8.640;2023-03-20T13:01:30;99310.94;;;15.23;64.44
54389;BME280;40975;50.390;8.640;2023-03-20T13:04:12;99309.22;;;15.39;63.34
54389;BME280;40975;50.390;8.640;2023-03-20T13:06:50;99302.13;;;15.15;63.42
54389;BME280;40975;50.390;8.640;2023-03-20T13:18:01;99301.38;;;14.32;62.51
54389;BME280;40975;50.390;8.640;2023-03-20T13:20:33;99309.16;;;14.00;61.70
54389;BME280;40975;50.390;8.640;2023-03-20T13:26:00;99308.66;;;13.96;64.52
54389;BME280;40975;50.390;8.640;2023-03-20T13:31:31;99301.88;;;14.27;65.50
54389;BME280;40975;50.390;8.640;2023-03-20T13:37:27;99309.66;;;14.04;66.03
54389;BME280;40975;50.390;8.640;2023-03-20T13:42:38;99303.56;;;13.60;62.90
54389;BME280;40975;50.390;8.640;2023-03-20T13:45:20;99305.75;;;13.65;63.37
54389;BME280;40975;50.390;8.640;2023-03-20T13:47:50;99305.41;;;13.68;63.65
54389;BME280;40975;50.390;8.640;2023-03-20T13:50:32;99304.06;;;13.56;64.93
54389;BME280;40975;50.390;8.640;2023-03-20T13:53:06;99305.75;;;13.65;66.49
54389;BME280;40975;50.390;8.640;2023-03-20T13:55:47;99307.06;;;13.61;64.62
54389;BME280;40975;50.390;8.640;2023-03-20T14:01:24;99300.19;;;13.50;64.60
54389;BME280;40975;50.390;8.640;2023-03-20T14:03:52;99300.78;;;13.35;64.33
54389;BME280;40975;50.390;8.640;2023-03-20T14:08:57;99300.06;;;13.25;65.83
54389;BME280;40975;50.390;8.640;2023-03-20T14:13:50;99288.53;;;13.16;65.92
54389;BME280;40975;50.390;8.640;2023-03-20T14:16:18;99291.97;;;13.00;65.22
54389;BME280;40975;50.390;8.640;2023-03-20T14:18:46;99289.59;;;12.97;67.37
54389;BME280;40975;50.390;8.640;2023-03-20T14:21:17;99296.38;;;12.91;67.19
54389;BME280;40975;50.390;8.640;2023-03-20T14:23:47;99300.72;;;12.66;67.28
54389;BME280;40975;50.390;8.640;2023-03-20T14:26:25;99297.31;;;12.56;66.45
54389;BME280;40975;50.390;8.640;2023-03-20T14:28:58;99302.97;;;12.35;67.63
54389;BME280;40975;50.390;8.640;2023-03-20T14:39:43;99303.66;;;12.01;65.17
54389;BME280;40975;50.390;8.640;2023-03-20T14:44:54;99310.22;;;11.78;64.57
54389;BME280;40975;50.390;8.640;2023-03-20T14:50:27;99304.22;;;11.76;67.83
54389;BME280;40975;50.390;8.640;2023-03-20T14:53:02;99309.00;;;11.73;65.75
54389;BME280;40975;50.390;8.640;2023-03-20T14:55:50;99312.34;;;11.75;64.35
54389;BME280;40975;50.390;8.640;2023-03-20T15:01:01;99308.13;;;11.54;61.86
54389;BME280;40975;50.390;8.640;2023-03-20T15:03:29;99306.06;;;11.48;63.30
54389;BME280;40975;50.390;8.640;2023-03-20T15:05:56;99307.53;;;11.32;63.63